Create Tblcommutelog Verified Points Advance Search
| # | Trip ID | Id Commuter | Trip Date | Trip Num | Current Lat | Current Lng | Delta Distance | Current Time | Activity | Activity Confidence | Current Speed | |
|---|---|---|---|---|---|---|---|---|---|---|---|---|
| 69361 | 250320_780758_6461772_0859 | 780758 | (not set) | (not set) | 38.945089821431 | -77.29186515212 | 4.1118 | 2025-03-20 13:35:14.223 | in_vehicle | 100 | 13.259184421576 | |
| 69362 | 250320_774450_16504560_0853 | 774450 | (not set) | (not set) | 38.8982492 | -77.0298444 | 8.6919 | 2025-03-20 13:32:39.793 | still | 100 | 0.031292748129141 | |
| 69363 | 250320_774450_16504560_0853 | 774450 | (not set) | (not set) | 38.8959822 | -77.0165551 | 7.4709 | 2025-03-20 13:32:39.794 | in_vehicle | 100 | -0.44703925898772 | |
| 69364 | 250320_780758_6461772_0859 | 780758 | (not set) | (not set) | 38.900592864535 | -77.051512749106 | 16.4949 | 2025-03-20 14:08:10.086 | in_vehicle | 100 | -0.44703925898772 | |
| 69365 | 250320_780758_6461772_0859 | 780758 | (not set) | (not set) | 38.900664620164 | -77.051203018194 | 16.4949 | 2025-03-20 14:08:19.573 | in_vehicle | 100 | -0.44703925898772 | |
| 69366 | 250320_780758_6461772_0859 | 780758 | (not set) | (not set) | 38.900708027662 | -77.051015651096 | 16.4949 | 2025-03-20 14:08:30.743 | in_vehicle | 100 | -0.44703925898772 | |
| 69367 | 250320_781042_16648717_0953 | 781042 | (not set) | (not set) | 39.012632535652 | -77.041987998543 | 9.8436 | 2025-03-20 14:08:51.031 | in_vehicle | 100 | 0 | |
| 69368 | 250320_780758_6461772_0859 | 780758 | (not set) | (not set) | 38.900845969025 | -77.049196190126 | 16.4949 | 2025-03-20 14:08:59.787 | in_vehicle | 100 | -0.44703925898772 | |
| 69369 | 250320_780758_6461772_0859 | 780758 | (not set) | (not set) | 38.901021375776 | -77.046882556776 | 16.4949 | 2025-03-20 14:09:12.306 | in_vehicle | 100 | -0.44703925898772 | |
| 69370 | 250320_780758_6461772_0859 | 780758 | (not set) | (not set) | 38.901150538693 | -77.04421665458 | 16.4949 | 2025-03-20 14:09:32.678 | in_vehicle | 100 | -0.44703925898772 | |
| 69371 | 250320_781042_16648717_0953 | 781042 | (not set) | (not set) | 39.012249797173 | -77.04156704624 | 9.8784 | 2025-03-20 14:09:39.208 | in_vehicle | 100 | 4.5285076935456 | |
| 69372 | 250320_781042_16648717_0953 | 781042 | (not set) | (not set) | 39.010894399361 | -77.041129961989 | 9.9748 | 2025-03-20 14:09:53.167 | in_vehicle | 100 | 3.6299587829803 | |
| 69373 | 250320_781200_16421763_1000 | 781200 | (not set) | (not set) | 38.900871268016 | -77.050373113487 | 1.3546 | 2025-03-20 14:10:05.725 | on_foot | 100 | -0.44703925898772 | |
| 69374 | 250320_781200_16421763_1000 | 781200 | (not set) | (not set) | 38.900871268016 | -77.050373113487 | 1.3546 | 2025-03-20 14:10:05.737 | on_foot | 100 | -0.44703925898772 | |
| 69375 | 250320_780758_6461772_0859 | 780758 | (not set) | (not set) | 38.901318424288 | -77.040600221401 | 16.4949 | 2025-03-20 14:10:16.116 | in_vehicle | 100 | -0.44703925898772 | |
| 69376 | 250320_781042_16648717_0953 | 781042 | (not set) | (not set) | 39.01068478429 | -77.041045629947 | 9.99 | 2025-03-20 14:10:20.198 | still | 33 | 0 | |
| 69377 | 250320_781813_16504316_1010 | 781813 | (not set) | (not set) | 38.926745305793 | -77.054322344017 | 0 | 2025-03-20 14:10:22.544 | unknown | 100 | 0.026822355539263 | |
| 69378 | 250320_781813_16504316_1010 | 781813 | (not set) | (not set) | 38.926745305793 | -77.054322344017 | 0 | 2025-03-20 14:10:22.604 | unknown | 100 | 0.026822355539263 | |
| 69379 | 250320_781042_16648717_0953 | 781042 | (not set) | (not set) | 39.010458082066 | -77.040922751181 | 10.0069 | 2025-03-20 14:10:48.173 | in_vehicle | 100 | 2.2754298282475 | |
| 69380 | 250320_781042_16648717_0953 | 781042 | (not set) | (not set) | 39.009533906616 | -77.040601491708 | 10.073 | 2025-03-20 14:11:11.237 | in_vehicle | 100 | 4.8235536044775 |